createdAt,value
2023-04-24T00:00:27.315Z,14.22
2023-04-24T00:02:58.539Z,14.24
2023-04-24T00:05:28.840Z,14.23
2023-04-24T00:07:56.834Z,14.28
2023-04-24T00:10:25.464Z,14.22
2023-04-24T00:12:54.871Z,14.26
2023-04-24T00:15:22.641Z,14.26
2023-04-24T00:17:50.867Z,14.27
2023-04-24T00:20:18.461Z,14.21
2023-04-24T00:22:45.813Z,14.32
2023-04-24T00:25:13.224Z,14.31
2023-04-24T00:27:40.865Z,14.28
2023-04-24T00:30:10.025Z,14.30
2023-04-24T00:32:39.343Z,14.25
2023-04-24T00:35:07.672Z,14.29
2023-04-24T00:37:36.308Z,14.34
2023-04-24T00:40:04.403Z,14.21
2023-04-24T00:42:39.030Z,14.31
2023-04-24T00:45:07.347Z,14.30
2023-04-24T00:47:35.218Z,14.27
2023-04-24T00:50:07.488Z,14.24
2023-04-24T00:52:36.123Z,14.31
2023-04-24T00:55:04.543Z,14.32
2023-04-24T00:57:34.156Z,14.27
2023-04-24T01:00:01.397Z,14.26
2023-04-24T01:02:30.992Z,14.32
2023-04-24T01:04:59.547Z,14.31
2023-04-24T01:07:28.982Z,14.24
2023-04-24T01:09:56.360Z,14.18
2023-04-24T01:12:23.710Z,14.23
2023-04-24T01:14:52.465Z,14.28
2023-04-24T01:17:20.537Z,14.18
2023-04-24T01:19:49.036Z,14.21
2023-04-24T01:22:18.417Z,14.23
2023-04-24T01:24:52.551Z,14.40
2023-04-24T01:27:21.646Z,14.43
2023-04-24T01:29:50.669Z,14.46
2023-04-24T01:32:20.293Z,14.46
2023-04-24T01:34:49.110Z,14.41
2023-04-24T01:37:17.079Z,14.55
2023-04-24T01:39:46.520Z,14.60
2023-04-24T01:42:15.915Z,14.62
2023-04-24T01:44:43.656Z,14.62
2023-04-24T01:47:11.987Z,14.44
2023-04-24T01:49:42.736Z,14.52
2023-04-24T01:52:10.365Z,14.50
2023-04-24T01:54:37.881Z,14.54
2023-04-24T01:57:05.407Z,14.46
2023-04-24T01:59:35.994Z,14.44
2023-04-24T02:02:11.634Z,14.42
2023-04-24T02:04:39.435Z,14.39
2023-04-24T02:07:09.354Z,14.32
2023-04-24T02:09:42.636Z,14.30
2023-04-24T02:12:09.992Z,14.18
2023-04-24T02:14:37.449Z,14.11
2023-04-24T02:17:05.007Z,14.11
2023-04-24T02:19:33.441Z,14.05
2023-04-24T02:22:00.960Z,14.05
2023-04-24T02:24:28.274Z,13.95
2023-04-24T02:26:56.069Z,13.95
2023-04-24T02:29:24.867Z,13.96
2023-04-24T02:31:52.271Z,13.96
2023-04-24T02:34:20.751Z,13.92
2023-04-24T02:36:48.175Z,13.93
2023-04-24T02:39:17.745Z,13.83
2023-04-24T02:41:45.212Z,13.95
2023-04-24T02:44:13.530Z,13.94
2023-04-24T02:46:42.559Z,13.91
2023-04-24T02:49:15.787Z,13.88
2023-04-24T02:51:43.155Z,13.82
2023-04-24T02:54:13.516Z,13.83
2023-04-24T02:56:41.144Z,13.87
2023-04-24T02:59:08.565Z,13.90
2023-04-24T03:01:36.079Z,13.90
2023-04-24T03:04:05.149Z,13.94
2023-04-24T03:06:34.141Z,13.92
2023-04-24T03:09:01.501Z,13.92
2023-04-24T03:11:29.886Z,13.92
2023-04-24T03:13:57.425Z,13.84
2023-04-24T03:16:24.857Z,13.93
2023-04-24T03:18:52.258Z,13.92
2023-04-24T03:21:20.022Z,13.86
2023-04-24T03:23:52.305Z,13.83
2023-04-24T03:26:21.325Z,13.88
2023-04-24T03:28:48.739Z,13.80
2023-04-24T03:31:18.050Z,13.80
2023-04-24T03:33:45.339Z,13.81
2023-04-24T03:36:12.998Z,13.70
2023-04-24T03:38:40.223Z,13.70
2023-04-24T03:41:07.705Z,13.65
2023-04-24T03:43:41.297Z,13.67
2023-04-24T03:46:10.579Z,13.67
2023-04-24T03:48:37.717Z,13.62
2023-04-24T03:51:05.017Z,13.62
2023-04-24T03:53:32.351Z,13.58
2023-04-24T03:55:59.867Z,13.57
2023-04-24T03:58:27.276Z,13.52
2023-04-24T04:00:54.591Z,13.55
2023-04-24T04:03:22.283Z,13.50
2023-04-24T04:05:49.586Z,13.56
2023-04-24T04:08:16.949Z,13.58
2023-04-24T04:10:44.104Z,13.53
2023-04-24T04:13:11.548Z,13.57
2023-04-24T04:15:38.983Z,13.56
2023-04-24T04:18:06.888Z,13.51
2023-04-24T04:20:34.422Z,13.54
2023-04-24T04:23:01.861Z,13.52
2023-04-24T04:25:30.512Z,13.56
2023-04-24T04:27:59.679Z,13.57
2023-04-24T04:30:27.405Z,13.49
2023-04-24T04:32:55.779Z,13.53
2023-04-24T04:35:23.369Z,13.60
2023-04-24T04:37:50.621Z,13.60
2023-04-24T04:40:18.689Z,13.60
2023-04-24T04:42:47.274Z,13.64
2023-04-24T04:45:14.723Z,13.64
2023-04-24T04:47:41.995Z,13.62
2023-04-24T04:50:10.723Z,13.60
2023-04-24T04:52:38.345Z,13.60
2023-04-24T04:55:07.787Z,13.57
2023-04-24T04:57:35.182Z,13.56
2023-04-24T05:00:02.729Z,13.64
2023-04-24T05:02:30.277Z,13.59
2023-04-24T05:04:57.847Z,13.61
2023-04-24T05:07:27.238Z,13.57
2023-04-24T05:09:54.589Z,13.61
2023-04-24T05:12:22.074Z,13.68
2023-04-24T05:14:51.149Z,13.72
2023-04-24T05:17:18.678Z,13.76
2023-04-24T05:19:46.488Z,13.77
2023-04-24T05:22:14.165Z,13.70
2023-04-24T05:24:49.418Z,13.72
2023-04-24T05:27:16.658Z,13.81
2023-04-24T05:29:45.111Z,13.87
2023-04-24T05:32:12.629Z,13.91
2023-04-24T05:34:42.120Z,13.96
2023-04-24T05:37:11.263Z,13.98
2023-04-24T05:39:39.147Z,14.07
2023-04-24T05:42:08.670Z,14.07
2023-04-24T05:44:42.076Z,14.09
2023-04-24T05:47:09.535Z,14.20
2023-04-24T05:49:37.066Z,14.21
2023-04-24T05:52:05.483Z,14.28
2023-04-24T05:54:32.949Z,14.21
2023-04-24T05:57:00.368Z,14.29
2023-04-24T05:59:27.908Z,14.33
2023-04-24T06:01:55.340Z,14.38
2023-04-24T06:04:23.197Z,14.41
2023-04-24T06:06:52.174Z,14.52
2023-04-24T06:09:19.425Z,14.54
2023-04-24T06:11:47.086Z,14.62
2023-04-24T06:14:14.661Z,14.66
2023-04-24T06:16:49.547Z,14.63
2023-04-24T06:19:19.837Z,14.70
2023-04-24T06:21:47.426Z,14.80
2023-04-24T06:24:19.768Z,14.88
2023-04-24T06:26:47.347Z,14.98
2023-04-24T06:29:14.796Z,15.03
2023-04-24T06:31:42.238Z,15.07
2023-04-24T06:34:09.764Z,15.18
2023-04-24T06:36:37.141Z,15.20
2023-04-24T06:39:06.054Z,15.21
2023-04-24T06:44:24.587Z,15.34
2023-04-24T06:46:52.072Z,15.39
2023-04-24T06:49:26.423Z,15.48
2023-04-24T06:51:53.518Z,15.55
2023-04-24T06:54:22.197Z,15.62
2023-04-24T06:56:51.029Z,15.71
2023-04-24T06:59:18.576Z,15.79
2023-04-24T07:01:46.383Z,15.74
2023-04-24T07:04:14.664Z,15.87
2023-04-24T07:06:41.939Z,16.06
2023-04-24T07:09:10.699Z,16.21
2023-04-24T07:11:39.863Z,16.40
2023-04-24T07:14:07.755Z,16.34
2023-04-24T07:16:35.197Z,16.38
2023-04-24T07:19:03.216Z,16.36
2023-04-24T07:21:32.651Z,16.42
2023-04-24T07:24:01.716Z,16.46
2023-04-24T07:26:36.031Z,16.45
2023-04-24T07:29:03.395Z,16.44
2023-04-24T07:31:31.465Z,16.50
2023-04-24T07:33:59.890Z,16.60
2023-04-24T07:36:27.393Z,16.79
2023-04-24T07:38:55.836Z,16.77
2023-04-24T07:41:24.969Z,17.00
2023-04-24T07:43:53.906Z,16.84
2023-04-24T07:46:21.696Z,16.76
2023-04-24T07:48:55.812Z,16.67
2023-04-24T07:51:29.588Z,16.68
2023-04-24T07:53:56.957Z,16.65
2023-04-24T07:56:25.351Z,16.44
2023-04-24T07:58:53.818Z,16.45
2023-04-24T08:01:22.353Z,16.61
2023-04-24T08:03:52.931Z,16.60
2023-04-24T08:06:20.706Z,16.65
2023-04-24T08:08:48.262Z,16.74
2023-04-24T08:11:15.781Z,16.68
2023-04-24T08:13:43.274Z,16.70
2023-04-24T08:16:10.951Z,16.65
2023-04-24T08:18:38.265Z,16.74
2023-04-24T08:21:06.722Z,16.85
2023-04-24T08:23:35.136Z,16.78
2023-04-24T08:26:04.739Z,16.87
2023-04-24T08:28:33.060Z,17.10
2023-04-24T08:43:56.470Z,17.17
2023-04-24T08:46:24.245Z,17.15
2023-04-24T08:48:52.787Z,17.29
2023-04-24T08:51:21.799Z,17.27
2023-04-24T08:53:50.800Z,17.34
2023-04-24T08:56:18.565Z,17.22
2023-04-24T08:58:46.825Z,17.17
2023-04-24T09:01:15.438Z,17.18
2023-04-24T09:03:44.508Z,17.10
2023-04-24T09:06:13.218Z,17.04
2023-04-24T09:08:42.473Z,17.04
2023-04-24T09:11:11.826Z,17.14
2023-04-24T09:13:41.848Z,17.30
2023-04-24T09:16:16.900Z,17.35
2023-04-24T09:18:46.242Z,17.38
2023-04-24T09:21:13.844Z,17.34
2023-04-24T09:23:42.630Z,17.25
2023-04-24T09:26:11.851Z,17.29
2023-04-24T09:28:41.110Z,17.56
2023-04-24T09:31:11.639Z,17.58
2023-04-24T09:33:38.899Z,17.74
2023-04-24T09:36:07.757Z,17.73
2023-04-24T09:38:36.911Z,17.58
2023-04-24T09:41:08.551Z,18.00
2023-04-24T09:43:36.902Z,18.13
2023-04-24T09:46:11.123Z,17.94
2023-04-24T09:48:39.117Z,18.15
2023-04-24T09:51:13.654Z,18.02
2023-04-24T09:53:41.501Z,17.89
2023-04-24T09:56:14.287Z,17.73
2023-04-24T09:58:47.958Z,17.58
2023-04-24T10:01:15.112Z,17.47
2023-04-24T10:03:46.044Z,17.17
2023-04-24T10:06:14.489Z,16.64
2023-04-24T10:08:47.731Z,16.53
2023-04-24T10:11:15.953Z,16.29
2023-04-24T10:13:43.677Z,16.15
2023-04-24T10:16:12.128Z,15.97
2023-04-24T10:18:41.065Z,15.79
2023-04-24T10:21:08.848Z,15.82
2023-04-24T10:23:37.793Z,15.80
2023-04-24T10:26:05.017Z,15.49
2023-04-24T10:28:34.690Z,15.49
2023-04-24T10:31:03.113Z,15.43
2023-04-24T10:33:31.999Z,15.43
2023-04-24T10:36:00.146Z,15.34
2023-04-24T10:38:31.020Z,15.31
2023-04-24T10:41:17.672Z,15.39
2023-04-24T10:43:49.846Z,15.21
2023-04-24T10:46:22.986Z,15.12
2023-04-24T10:48:56.768Z,14.87
2023-04-24T10:51:25.447Z,14.72
2023-04-24T10:53:54.565Z,14.73
2023-04-24T10:56:24.154Z,14.63
2023-04-24T10:58:53.659Z,14.54
2023-04-24T11:01:28.297Z,14.47
2023-04-24T11:04:04.517Z,14.51
2023-04-24T11:06:38.163Z,14.73
2023-04-24T11:09:10.472Z,14.74
2023-04-24T11:11:38.985Z,14.58
2023-04-24T11:14:09.613Z,14.65
2023-04-24T11:16:45.836Z,14.48
2023-04-24T11:19:20.296Z,14.47
2023-04-24T11:21:50.385Z,14.26
2023-04-24T11:24:38.531Z,14.36
2023-04-24T11:27:05.738Z,14.62
2023-04-24T11:30:06.233Z,14.84
2023-04-24T11:32:44.898Z,14.61
2023-04-24T11:35:16.385Z,14.68
2023-04-24T11:40:27.017Z,14.72
2023-04-24T11:42:58.043Z,15.05
2023-04-24T11:45:27.367Z,14.90
2023-04-24T11:47:55.961Z,14.94
2023-04-24T11:50:27.085Z,15.05
2023-04-24T11:52:54.344Z,15.13
2023-04-24T11:55:21.596Z,15.16
2023-04-24T11:57:57.827Z,15.06
2023-04-24T12:00:35.556Z,15.28
2023-04-24T12:03:14.054Z,15.20
2023-04-24T12:05:42.287Z,15.30
2023-04-24T12:08:09.682Z,15.45
2023-04-24T12:10:37.346Z,15.60
2023-04-24T12:13:04.877Z,15.52
2023-04-24T12:15:32.260Z,15.65
2023-04-24T12:18:01.703Z,15.71
2023-04-24T12:20:34.371Z,15.67
2023-04-24T12:23:05.022Z,15.47
2023-04-24T12:25:34.605Z,15.49
2023-04-24T12:28:08.091Z,15.54
2023-04-24T12:30:43.417Z,15.47
2023-04-24T12:33:11.777Z,15.24
2023-04-24T12:35:42.392Z,15.16
2023-04-24T12:38:17.571Z,15.16
2023-04-24T12:40:45.676Z,15.09
2023-04-24T12:43:17.174Z,15.04
2023-04-24T12:45:46.276Z,15.06
2023-04-24T12:48:15.560Z,14.83
2023-04-24T12:50:46.083Z,14.80
2023-04-24T12:53:14.721Z,14.84
2023-04-24T12:55:42.227Z,14.81
2023-04-24T12:58:09.755Z,14.58
2023-04-24T13:00:38.774Z,14.34
2023-04-24T13:03:06.557Z,14.15
2023-04-24T13:05:34.143Z,14.13
2023-04-24T13:08:01.664Z,14.20
2023-04-24T13:10:30.138Z,14.05
2023-04-24T13:13:05.885Z,14.07
2023-04-24T13:15:34.199Z,14.20
2023-04-24T13:18:01.809Z,14.13
2023-04-24T13:20:36.823Z,14.06
2023-04-24T13:23:04.649Z,14.23
2023-04-24T13:25:37.473Z,14.37
2023-04-24T13:28:04.721Z,14.25
2023-04-24T13:30:33.329Z,14.23
2023-04-24T13:33:02.843Z,14.12
2023-04-24T13:35:30.193Z,14.05
2023-04-24T13:37:59.567Z,13.95
2023-04-24T13:40:27.392Z,13.91
2023-04-24T13:42:54.655Z,13.83
2023-04-24T13:45:25.255Z,13.59
2023-04-24T13:47:55.139Z,13.52
2023-04-24T13:50:28.911Z,13.40
2023-04-24T13:53:02.973Z,13.26
2023-04-24T13:55:31.066Z,13.14
2023-04-24T13:58:00.521Z,13.00
2023-04-24T14:00:30.028Z,13.00
2023-04-24T14:02:59.602Z,12.86
2023-04-24T14:05:26.834Z,12.72
2023-04-24T14:07:54.247Z,12.58
2023-04-24T14:10:21.905Z,12.57
2023-04-24T14:12:50.394Z,12.51
2023-04-24T14:15:23.931Z,12.47
2023-04-24T14:17:53.390Z,12.36
2023-04-24T14:20:22.168Z,12.28
2023-04-24T14:22:49.755Z,12.23
2023-04-24T14:25:18.266Z,12.15
2023-04-24T14:27:45.802Z,12.13
2023-04-24T14:30:14.062Z,12.13
2023-04-24T14:32:41.329Z,12.09
2023-04-24T14:35:09.149Z,12.02
2023-04-24T14:37:37.556Z,11.92
2023-04-24T14:42:39.120Z,11.87
2023-04-24T14:45:09.399Z,11.87
2023-04-24T14:47:39.264Z,11.84
2023-04-24T14:50:09.605Z,11.77
2023-04-24T14:52:37.239Z,11.84
2023-04-24T14:55:04.989Z,11.80
2023-04-24T14:57:32.274Z,11.95
2023-04-24T14:59:59.715Z,11.81
2023-04-24T15:02:27.335Z,11.87
2023-04-24T15:04:55.217Z,11.88
2023-04-24T15:07:24.610Z,11.96
2023-04-24T15:09:52.172Z,11.95
2023-04-24T15:12:19.520Z,11.97
2023-04-24T15:14:47.237Z,12.01
2023-04-24T15:17:14.456Z,12.05
2023-04-24T15:19:41.874Z,12.01
2023-04-24T15:22:09.572Z,11.97
2023-04-24T15:24:41.806Z,12.03
2023-04-24T15:27:12.447Z,12.05
2023-04-24T15:29:39.984Z,12.00
2023-04-24T15:32:09.955Z,12.06
2023-04-24T15:34:38.160Z,12.05
2023-04-24T15:37:11.503Z,12.15
2023-04-24T15:39:38.857Z,12.10
2023-04-24T15:42:06.078Z,12.09
2023-04-24T15:44:39.468Z,12.02
2023-04-24T15:47:06.949Z,12.09
2023-04-24T15:49:34.445Z,12.14
2023-04-24T15:52:02.947Z,12.02
2023-04-24T15:54:30.252Z,12.03
2023-04-24T15:56:58.306Z,12.07
2023-04-24T15:59:27.240Z,11.99
2023-04-24T16:01:57.001Z,12.02
2023-04-24T16:04:25.848Z,12.02
2023-04-24T16:06:54.615Z,11.98
2023-04-24T16:09:22.214Z,12.00
2023-04-24T16:11:49.956Z,12.02
2023-04-24T16:14:17.284Z,12.13
2023-04-24T16:16:46.678Z,12.04
2023-04-24T16:19:14.228Z,12.09
2023-04-24T16:21:42.764Z,12.11
2023-04-24T16:24:09.972Z,12.04
2023-04-24T16:26:38.747Z,11.98
2023-04-24T16:29:07.461Z,12.03
2023-04-24T16:31:37.335Z,12.13
2023-04-24T16:34:05.298Z,12.12
2023-04-24T16:36:33.182Z,12.09
2023-04-24T16:39:01.795Z,12.03
2023-04-24T16:41:29.298Z,11.95
2023-04-24T16:43:57.134Z,11.84
2023-04-24T16:46:24.398Z,11.80
2023-04-24T16:48:52.102Z,11.72
2023-04-24T16:51:20.127Z,11.77
2023-04-24T16:53:47.801Z,11.72
2023-04-24T16:56:16.575Z,11.70
2023-04-24T16:58:46.067Z,11.70
2023-04-24T17:01:13.640Z,11.78
2023-04-24T17:03:41.906Z,11.93
2023-04-24T17:06:12.190Z,11.79
2023-04-24T17:08:41.134Z,11.71
2023-04-24T17:11:09.051Z,11.63
2023-04-24T17:13:38.238Z,11.68
2023-04-24T17:16:07.112Z,11.70
2023-04-24T17:18:35.180Z,11.69
2023-04-24T17:21:02.649Z,11.61
2023-04-24T17:23:36.295Z,11.67
2023-04-24T17:26:03.807Z,11.69
2023-04-24T17:28:33.422Z,11.71
2023-04-24T17:31:01.630Z,11.54
2023-04-24T17:33:31.297Z,11.61
2023-04-24T17:36:04.727Z,11.56
2023-04-24T17:38:41.224Z,11.62
2023-04-24T17:41:11.178Z,11.61
2023-04-24T17:43:38.831Z,11.69
2023-04-24T17:46:08.779Z,11.63
2023-04-24T17:48:37.047Z,11.69
2023-04-24T17:51:05.450Z,11.71
2023-04-24T17:53:33.087Z,11.80
2023-04-24T17:56:04.211Z,11.73
2023-04-24T17:58:35.286Z,11.74
2023-04-24T18:01:03.282Z,11.66
2023-04-24T18:03:31.740Z,11.69
2023-04-24T18:06:00.010Z,11.67
2023-04-24T18:08:28.907Z,11.65
2023-04-24T18:10:57.221Z,11.64
2023-04-24T18:13:27.474Z,11.61
2023-04-24T18:15:56.360Z,11.61
2023-04-24T18:18:24.295Z,11.47
2023-04-24T18:20:52.005Z,11.43
2023-04-24T18:23:21.389Z,11.51
2023-04-24T18:25:49.437Z,11.50
2023-04-24T18:28:24.063Z,11.53
2023-04-24T18:30:53.021Z,11.23
2023-04-24T18:33:20.743Z,11.14
2023-04-24T18:35:49.867Z,11.37
2023-04-24T18:38:17.982Z,11.49
2023-04-24T18:40:46.708Z,11.57
2023-04-24T18:43:16.000Z,11.68
2023-04-24T18:45:43.711Z,11.46
2023-04-24T18:48:11.431Z,11.18
2023-04-24T18:50:42.217Z,10.98
2023-04-24T18:53:10.660Z,11.06
2023-04-24T18:55:38.966Z,10.92
2023-04-24T18:58:08.204Z,11.05
2023-04-24T19:00:38.937Z,10.81
2023-04-24T19:03:09.445Z,10.81
2023-04-24T19:05:37.870Z,10.72
2023-04-24T19:08:07.213Z,10.75
2023-04-24T19:10:36.539Z,10.63
2023-04-24T19:13:04.129Z,10.57
2023-04-24T19:15:34.679Z,10.51
2023-04-24T19:18:02.938Z,10.60
2023-04-24T19:20:31.036Z,10.50
2023-04-24T19:22:59.338Z,10.46
2023-04-24T19:25:28.908Z,10.42
2023-04-24T19:27:58.509Z,10.39
2023-04-24T19:30:27.877Z,10.54
2023-04-24T19:32:56.522Z,10.43
2023-04-24T19:35:24.765Z,10.47
2023-04-24T19:37:53.758Z,10.48
2023-04-24T19:40:21.367Z,10.43
2023-04-24T19:42:49.316Z,10.51
2023-04-24T19:45:17.574Z,10.78
2023-04-24T19:47:53.104Z,10.80
2023-04-24T19:50:21.237Z,10.84
2023-04-24T19:52:50.231Z,10.79
2023-04-24T19:55:18.536Z,10.91
2023-04-24T19:57:46.660Z,10.73
2023-04-24T20:00:14.772Z,10.84
2023-04-24T20:02:44.809Z,10.94
2023-04-24T20:05:13.959Z,10.94
2023-04-24T20:07:41.770Z,10.87
2023-04-24T20:10:10.401Z,10.84
2023-04-24T20:12:40.559Z,10.63
2023-04-24T20:15:09.432Z,10.53
2023-04-24T20:17:39.169Z,10.49
2023-04-24T20:20:08.704Z,10.53
2023-04-24T20:22:41.176Z,10.49
2023-04-24T20:25:10.313Z,10.39
2023-04-24T20:27:41.304Z,10.37
2023-04-24T20:30:17.054Z,10.37
2023-04-24T20:32:45.043Z,10.37
2023-04-24T20:35:15.398Z,10.34
2023-04-24T20:37:43.207Z,10.40
2023-04-24T20:40:11.296Z,10.47
2023-04-24T20:42:38.688Z,10.39
2023-04-24T20:45:07.150Z,10.49
2023-04-24T20:47:35.164Z,10.37
2023-04-24T20:50:04.343Z,10.56
2023-04-24T20:52:33.207Z,10.57
2023-04-24T20:55:00.896Z,10.69
2023-04-24T20:57:28.138Z,10.48
2023-04-24T20:59:55.653Z,10.43
2023-04-24T21:02:23.100Z,10.68
2023-04-24T21:04:57.651Z,10.55
2023-04-24T21:07:25.197Z,10.44
2023-04-24T21:09:53.625Z,10.39
2023-04-24T21:12:22.069Z,10.61
2023-04-24T21:14:51.475Z,10.62
2023-04-24T21:17:19.594Z,10.69
2023-04-24T21:19:49.092Z,10.62
2023-04-24T21:22:16.579Z,10.62
2023-04-24T21:24:47.408Z,10.57
2023-04-24T21:27:14.596Z,10.67
2023-04-24T21:29:42.759Z,10.72
2023-04-24T21:32:10.181Z,10.68
2023-04-24T21:34:38.626Z,10.71
2023-04-24T21:37:15.683Z,10.67
2023-04-24T21:39:43.225Z,10.41
2023-04-24T21:42:10.401Z,10.38
2023-04-24T21:44:37.599Z,10.30
2023-04-24T21:47:05.198Z,10.26
2023-04-24T21:49:32.508Z,10.24
2023-04-24T21:52:00.012Z,10.23
2023-04-24T21:54:33.581Z,10.25
2023-04-24T21:57:02.586Z,10.02
2023-04-24T21:59:30.402Z,10.05
2023-04-24T22:01:58.381Z,10.01
2023-04-24T22:04:26.985Z,10.08
2023-04-24T22:06:54.686Z,10.01
2023-04-24T22:09:22.098Z,9.98
2023-04-24T22:11:49.386Z,9.94
2023-04-24T22:14:17.390Z,9.80
2023-04-24T22:16:46.429Z,9.80
2023-04-24T22:19:14.887Z,9.76
2023-04-24T22:21:42.890Z,9.72
2023-04-24T22:24:10.476Z,9.70
2023-04-24T22:26:40.107Z,9.63
2023-04-24T22:29:08.371Z,9.69
2023-04-24T22:31:36.356Z,9.61
2023-04-24T22:34:03.864Z,9.58
2023-04-24T22:36:34.287Z,9.63
2023-04-24T22:39:02.124Z,9.59
2023-04-24T22:41:32.105Z,9.51
2023-04-24T22:43:59.488Z,9.60
2023-04-24T22:46:26.800Z,9.59
2023-04-24T22:48:54.483Z,9.73
2023-04-24T22:51:21.578Z,9.81
2023-04-24T22:53:51.377Z,9.85
2023-04-24T22:56:19.115Z,9.82
2023-04-24T22:58:48.636Z,9.80
2023-04-24T23:01:18.088Z,9.70
2023-04-24T23:03:45.585Z,9.64
2023-04-24T23:06:19.238Z,9.60
2023-04-24T23:08:47.035Z,9.57
2023-04-24T23:11:14.585Z,9.54
2023-04-24T23:13:43.682Z,9.57
2023-04-24T23:16:11.156Z,9.51
2023-04-24T23:18:38.609Z,9.56
2023-04-24T23:21:06.105Z,9.57
2023-04-24T23:23:33.548Z,9.72
2023-04-24T23:26:01.172Z,9.90
2023-04-24T23:28:30.641Z,10.00
2023-04-24T23:30:57.857Z,10.05
2023-04-24T23:33:25.417Z,10.03
2023-04-24T23:35:53.853Z,10.07
2023-04-24T23:38:21.309Z,10.01
2023-04-24T23:40:50.849Z,9.96
2023-04-24T23:43:18.546Z,9.98
2023-04-24T23:45:45.907Z,9.97
2023-04-24T23:48:13.236Z,9.95
2023-04-24T23:50:40.896Z,9.99
2023-04-24T23:53:08.179Z,9.97
2023-04-24T23:55:41.707Z,9.87
2023-04-24T23:58:09.674Z,9.91
